Time;durP1;ratioP1;P1;durP2;ratioP2;P2;SDS_P1;SDS_P2;PMS_P1;PMS_P2;Temp;Humidity;BMP_temperature;BMP_pressure;BME280_temperature;BME280_humidity;BME280_pressure;Samples;Min_cycle;Max_cycle;Signal;HPM_P1;HPM_P2
2023/03/23 00:01:59;;;;;;;1.47;1.37;;;12.90;99.90;;;;;;5008122;28;20239;-73
2023/03/23 00:04:26;;;;;;;1.40;1.40;;;12.90;99.90;;;;;;5008256;28;20209;-73
2023/03/23 00:06:53;;;;;;;1.50;1.43;;;12.90;99.90;;;;;;5008198;28;20675;-73
2023/03/23 00:09:23;;;;;;;3.93;1.40;;;12.80;99.90;;;;;;5008287;28;20292;-73
2023/03/23 00:11:51;;;;;;;1.50;1.40;;;12.80;99.90;;;;;;4998769;28;20214;-73
2023/03/23 00:14:22;;;;;;;1.63;1.40;;;12.80;99.90;;;;;;4988756;28;20210;-73
2023/03/23 00:16:50;;;;;;;2.80;1.60;;;12.70;99.90;;;;;;4988648;28;20230;-74
2023/03/23 00:19:19;;;;;;;2.10;1.90;;;12.70;99.90;;;;;;5002653;28;20206;-73
2023/03/23 00:21:46;;;;;;;1.87;1.77;;;12.60;99.90;;;;;;5008046;28;21015;-76
2023/03/23 00:24:15;;;;;;;2.83;1.70;;;12.60;99.90;;;;;;5007827;28;20283;-75
2023/03/23 00:26:46;;;;;;;3.60;1.83;;;12.50;99.90;;;;;;5007947;28;20890;-75
2023/03/23 00:29:15;;;;;;;3.07;1.57;;;12.50;99.90;;;;;;5007475;28;20273;-75
2023/03/23 00:31:46;;;;;;;2.13;1.93;;;12.40;99.90;;;;;;5007411;28;20498;-75
2023/03/23 00:34:18;;;;;;;2.67;1.80;;;12.40;99.90;;;;;;5004844;28;20237;-75
2023/03/23 00:36:45;;;;;;;1.60;1.50;;;12.30;99.90;;;;;;5007743;28;20194;-75
2023/03/23 00:39:12;;;;;;;1.73;1.60;;;12.40;99.90;;;;;;5007786;28;20308;-75
2023/03/23 00:41:39;;;;;;;3.23;1.40;;;12.40;99.90;;;;;;5007161;28;20225;-75
2023/03/23 00:44:08;;;;;;;1.60;1.50;;;12.50;99.90;;;;;;5007204;28;20205;-75
2023/03/23 00:46:44;;;;;;;1.63;1.43;;;12.50;99.90;;;;;;5007762;28;20209;-76
2023/03/23 00:49:13;;;;;;;1.57;1.47;;;12.50;99.90;;;;;;5007222;28;20600;-75
2023/03/23 00:51:40;;;;;;;1.50;1.40;;;12.60;99.90;;;;;;5007473;28;20201;-74
2023/03/23 00:54:07;;;;;;;2.13;1.50;;;12.60;99.90;;;;;;5007102;28;20891;-74
2023/03/23 00:56:34;;;;;;;2.37;1.50;;;12.60;99.90;;;;;;5007474;28;20216;-74
2023/03/23 00:59:01;;;;;;;1.87;1.73;;;12.60;99.90;;;;;;5006944;28;20205;-74
2023/03/23 01:01:30;;;;;;;1.57;1.47;;;12.60;99.90;;;;;;5006918;28;20271;-74
2023/03/23 01:04:00;;;;;;;1.57;1.47;;;12.50;99.90;;;;;;5006980;28;20209;-75
2023/03/23 01:06:30;;;;;;;1.60;1.50;;;12.40;99.90;;;;;;5006658;28;20214;-74
2023/03/23 01:08:57;;;;;;;1.53;1.43;;;12.40;99.90;;;;;;5007097;28;20309;-74
2023/03/23 01:11:24;;;;;;;1.40;1.20;;;12.40;99.90;;;;;;5006376;28;20330;-74
2023/03/23 01:13:51;;;;;;;1.70;1.60;;;12.40;99.90;;;;;;5006471;28;20621;-74
2023/03/23 01:16:20;;;;;;;1.90;1.60;;;12.50;99.90;;;;;;5006899;28;20244;-74
2023/03/23 01:18:48;;;;;;;1.60;1.50;;;12.40;99.90;;;;;;5005031;28;20213;-74
2023/03/23 01:21:17;;;;;;;1.47;1.40;;;12.30;99.90;;;;;;5005633;28;20233;-74
2023/03/23 01:23:45;;;;;;;1.83;1.40;;;12.30;99.90;;;;;;5006188;28;20305;-76
2023/03/23 01:26:14;;;;;;;2.27;1.50;;;12.30;99.90;;;;;;5006890;28;20217;-75
2023/03/23 01:28:41;;;;;;;1.60;1.50;;;12.30;99.90;;;;;;5006674;28;20642;-73
2023/03/23 01:31:11;;;;;;;1.30;1.30;;;12.30;99.90;;;;;;5006656;28;20296;-73
2023/03/23 01:33:39;;;;;;;2.30;1.70;;;12.10;99.90;;;;;;4987065;28;20210;-73
2023/03/23 01:36:09;;;;;;;3.77;1.50;;;12.00;99.90;;;;;;4997714;28;20631;-72
2023/03/23 01:38:37;;;;;;;2.77;1.57;;;12.00;99.90;;;;;;5006618;28;20193;-73
2023/03/23 01:41:05;;;;;;;1.60;1.50;;;12.00;99.90;;;;;;5005995;28;20322;-73
2023/03/23 01:43:32;;;;;;;1.73;1.63;;;11.90;99.90;;;;;;5006476;28;20207;-73
2023/03/23 01:45:59;;;;;;;1.27;1.27;;;11.90;99.90;;;;;;5006177;28;20289;-73
2023/03/23 01:48:30;;;;;;;1.50;1.50;;;12.00;99.90;;;;;;5006462;28;20212;-73
2023/03/23 01:51:03;;;;;;;1.77;1.67;;;12.10;99.90;;;;;;5006284;28;20197;-73
2023/03/23 01:53:37;;;;;;;1.80;1.50;;;12.10;99.90;;;;;;5006208;28;20285;-73
2023/03/23 01:56:05;;;;;;;2.00;1.60;;;12.10;99.90;;;;;;5006332;28;20237;-74
2023/03/23 01:58:34;;;;;;;1.40;1.30;;;12.20;99.90;;;;;;5006053;28;20206;-73
2023/03/23 02:01:06;;;;;;;4.27;1.57;;;12.20;99.90;;;;;;5005558;28;20226;-73
2023/03/23 02:03:35;;;;;;;2.27;1.60;;;12.30;99.90;;;;;;5005757;28;20607;-73
2023/03/23 02:06:03;;;;;;;1.63;1.53;;;12.30;99.90;;;;;;5006532;28;20213;-73
2023/03/23 02:08:33;;;;;;;1.67;1.57;;;12.30;99.90;;;;;;5006260;28;20573;-73
2023/03/23 02:11:00;;;;;;;1.47;1.37;;;12.30;99.90;;;;;;5005510;28;20813;-73
2023/03/23 02:13:28;;;;;;;1.90;1.80;;;12.30;99.90;;;;;;5005872;28;20550;-72
2023/03/23 02:16:04;;;;;;;1.90;1.60;;;12.30;99.90;;;;;;5007932;28;20308;-73
2023/03/23 02:18:46;;;;;;;1.50;1.40;;;12.30;99.90;;;;;;5006016;28;20247;-73
2023/03/23 02:21:51;;;;;;;2.90;1.87;;;12.30;99.90;;;;;;5005608;28;20229;-73
2023/03/23 02:24:54;;;;;;;1.63;1.53;;;12.30;99.90;;;;;;5005705;28;20655;-73
2023/03/23 02:27:37;;;;;;;1.47;1.43;;;12.30;99.90;;;;;;4999867;28;20193;-74
2023/03/23 02:30:22;;;;;;;2.33;1.77;;;12.30;99.90;;;;;;5006037;28;20193;-74
2023/03/23 02:33:13;;;;;;;1.60;1.50;;;12.30;99.90;;;;;;5005780;28;20307;-74
2023/03/23 02:35:44;;;;;;;2.30;1.80;;;12.30;99.90;;;;;;5004159;28;20724;-74
2023/03/23 02:38:16;;;;;;;1.73;1.63;;;12.30;99.90;;;;;;5005967;28;20229;-74
2023/03/23 02:40:46;;;;;;;2.10;1.70;;;12.30;99.90;;;;;;5005148;28;20194;-72
2023/03/23 02:43:16;;;;;;;2.37;1.90;;;12.30;99.90;;;;;;5007600;28;20220;-72
2023/03/23 02:45:45;;;;;;;1.93;1.77;;;12.30;99.90;;;;;;5005071;28;20619;-72
2023/03/23 02:48:16;;;;;;;2.63;1.70;;;12.20;99.90;;;;;;5005157;28;20213;-74
2023/03/23 02:50:46;;;;;;;1.93;1.83;;;12.20;99.90;;;;;;5005296;28;20284;-73
2023/03/23 02:53:17;;;;;;;2.40;1.87;;;12.20;99.90;;;;;;5005401;28;20205;-74
2023/03/23 02:55:45;;;;;;;1.80;1.70;;;12.20;99.90;;;;;;5005231;28;20248;-74
2023/03/23 02:58:12;;;;;;;1.77;1.67;;;12.10;99.90;;;;;;5005405;28;20213;-74
2023/03/23 03:00:40;;;;;;;1.90;1.80;;;12.10;99.90;;;;;;5004833;28;20205;-73
2023/03/23 03:03:13;;;;;;;2.10;1.80;;;12.10;99.90;;;;;;5005386;28;20247;-74
2023/03/23 03:05:51;;;;;;;1.63;1.53;;;12.10;99.90;;;;;;5005012;28;20284;-74
2023/03/23 03:08:25;;;;;;;2.00;1.90;;;12.10;99.90;;;;;;5004925;28;20205;-73
2023/03/23 03:10:59;;;;;;;2.20;1.50;;;12.10;99.90;;;;;;5004468;28;20240;-73
2023/03/23 03:13:34;;;;;;;2.83;1.40;;;12.10;99.90;;;;;;5004270;28;20241;-73
2023/03/23 03:16:08;;;;;;;1.70;1.60;;;12.10;99.90;;;;;;5005049;28;20197;-74
2023/03/23 03:18:44;;;;;;;2.33;1.60;;;12.10;99.90;;;;;;5004735;28;20321;-73
2023/03/23 03:21:14;;;;;;;1.67;1.57;;;12.10;99.90;;;;;;5004742;28;20285;-73
2023/03/23 03:23:43;;;;;;;1.40;1.30;;;12.10;99.90;;;;;;5004656;28;20494;-73
2023/03/23 03:26:17;;;;;;;1.90;1.67;;;12.10;99.90;;;;;;5005173;28;20303;-73
2023/03/23 03:28:47;;;;;;;1.60;1.50;;;12.10;99.90;;;;;;5000871;28;20206;-72
2023/03/23 03:31:16;;;;;;;2.17;1.97;;;12.10;99.90;;;;;;4983613;28;20280;-72
2023/03/23 03:33:43;;;;;;;1.60;1.50;;;12.00;99.90;;;;;;4994280;28;20672;-72
2023/03/23 03:36:18;;;;;;;1.70;1.60;;;11.90;99.90;;;;;;5003166;28;20212;-73
2023/03/23 03:38:48;;;;;;;1.40;1.40;;;12.00;99.90;;;;;;4993013;28;20648;-72
2023/03/23 03:41:15;;;;;;;1.60;1.40;;;12.00;99.90;;;;;;4987383;28;20212;-72
2023/03/23 03:43:42;;;;;;;1.60;1.33;;;12.00;99.90;;;;;;5003013;28;20209;-72
2023/03/23 03:46:09;;;;;;;1.57;1.47;;;12.00;99.90;;;;;;5003823;28;20209;-72
2023/03/23 03:48:36;;;;;;;1.60;1.43;;;12.00;99.90;;;;;;5006724;28;20627;-73
2023/03/23 03:51:03;;;;;;;2.13;1.53;;;12.00;99.90;;;;;;5006688;28;20268;-72
2023/03/23 03:53:32;;;;;;;3.00;1.40;;;12.00;99.90;;;;;;5006466;28;20241;-72
2023/03/23 03:55:59;;;;;;;1.80;1.60;;;12.10;99.90;;;;;;5006278;28;20664;-73
2023/03/23 03:58:31;;;;;;;1.80;1.70;;;12.10;99.90;;;;;;5006728;28;20213;-73
2023/03/23 04:00:58;;;;;;;1.60;1.50;;;12.10;99.90;;;;;;5005553;28;20221;-72
2023/03/23 04:03:26;;;;;;;1.70;1.60;;;12.10;99.90;;;;;;5005239;28;20778;-72
2023/03/23 04:05:54;;;;;;;1.70;1.40;;;12.10;99.90;;;;;;5005934;28;20205;-73
2023/03/23 04:08:22;;;;;;;1.30;1.30;;;12.10;99.90;;;;;;5005904;28;20575;-73
2023/03/23 04:10:50;;;;;;;2.77;1.63;;;12.10;99.90;;;;;;5005523;28;20733;-73
2023/03/23 04:13:17;;;;;;;2.40;1.70;;;12.10;99.90;;;;;;4987674;28;20237;-73
2023/03/23 04:15:45;;;;;;;1.63;1.50;;;12.00;99.90;;;;;;4991426;28;20207;-73
2023/03/23 04:18:14;;;;;;;3.00;1.70;;;12.00;99.90;;;;;;5008037;28;20213;-73
2023/03/23 04:20:42;;;;;;;1.70;1.60;;;12.00;99.90;;;;;;5007885;28;20213;-73
2023/03/23 04:23:09;;;;;;;1.83;1.70;;;12.00;99.90;;;;;;5007457;28;20331;-73
2023/03/23 04:25:36;;;;;;;2.43;1.93;;;12.00;99.90;;;;;;5007347;28;20308;-73
2023/03/23 04:28:04;;;;;;;1.57;1.47;;;12.00;99.90;;;;;;5007269;28;20585;-73
2023/03/23 04:30:31;;;;;;;2.10;1.53;;;12.00;99.90;;;;;;5007286;28;20646;-73
2023/03/23 04:33:00;;;;;;;1.90;1.47;;;11.90;99.90;;;;;;5007348;28;20214;-73
2023/03/23 04:35:28;;;;;;;2.23;1.70;;;11.90;99.90;;;;;;5007466;28;20205;-73
2023/03/23 04:37:55;;;;;;;2.93;1.50;;;11.90;99.90;;;;;;5007282;28;20259;-73
2023/03/23 04:40:23;;;;;;;3.27;1.90;;;11.90;99.90;;;;;;5007223;28;20318;-74
2023/03/23 04:42:51;;;;;;;2.43;1.70;;;11.90;99.90;;;;;;5006593;28;20742;-73
2023/03/23 04:45:22;;;;;;;2.20;1.63;;;11.90;99.90;;;;;;5007080;28;20213;-73
2023/03/23 04:47:52;;;;;;;3.93;1.60;;;11.90;99.90;;;;;;5007061;28;20202;-73
2023/03/23 04:50:23;;;;;;;1.93;1.80;;;11.90;99.90;;;;;;5007363;28;20193;-73
2023/03/23 04:52:51;;;;;;;1.67;1.57;;;11.90;99.90;;;;;;5007143;28;20205;-73
2023/03/23 04:55:19;;;;;;;3.70;1.83;;;11.90;99.90;;;;;;5007477;28;20291;-73
2023/03/23 04:57:47;;;;;;;2.50;1.67;;;11.90;99.90;;;;;;5006592;28;20213;-73
2023/03/23 05:00:16;;;;;;;1.87;1.77;;;11.90;99.90;;;;;;5007187;28;20886;-73
2023/03/23 05:02:46;;;;;;;3.87;2.10;;;11.90;99.90;;;;;;5006796;28;20323;-73
2023/03/23 05:05:14;;;;;;;1.67;1.57;;;11.80;99.90;;;;;;5006190;28;20252;-73
2023/03/23 05:07:42;;;;;;;2.03;1.70;;;11.70;99.90;;;;;;5006837;28;20259;-73
2023/03/23 05:10:11;;;;;;;1.60;1.47;;;11.70;99.90;;;;;;5006592;28;20906;-73
2023/03/23 05:12:38;;;;;;;2.10;1.60;;;11.70;99.90;;;;;;5006586;28;20213;-73
2023/03/23 05:15:07;;;;;;;2.23;1.50;;;11.50;99.90;;;;;;5006686;28;20241;-73
2023/03/23 05:17:34;;;;;;;2.13;1.60;;;11.50;99.90;;;;;;5006760;28;20237;-72
2023/03/23 05:20:06;;;;;;;2.13;1.60;;;11.40;99.90;;;;;;5006292;28;20206;-72
2023/03/23 05:22:33;;;;;;;2.10;1.90;;;11.40;99.90;;;;;;5006364;28;20602;-72
2023/03/23 05:25:02;;;;;;;1.70;1.43;;;11.40;99.90;;;;;;5006420;28;20224;-72
2023/03/23 05:27:30;;;;;;;2.83;1.80;;;11.50;99.90;;;;;;5006565;28;20739;-72
2023/03/23 05:29:58;;;;;;;3.13;1.53;;;11.50;99.90;;;;;;5006523;28;20570;-72
2023/03/23 05:32:28;;;;;;;1.63;1.53;;;11.60;99.90;;;;;;5006549;28;20223;-72
2023/03/23 05:34:56;;;;;;;1.57;1.47;;;11.60;99.90;;;;;;5006158;28;20219;-72
2023/03/23 05:37:25;;;;;;;1.77;1.63;;;11.70;99.90;;;;;;5006383;28;20745;-72
2023/03/23 05:39:53;;;;;;;1.97;1.33;;;11.70;99.90;;;;;;5006364;28;20237;-72
2023/03/23 05:42:20;;;;;;;1.70;1.60;;;11.60;99.90;;;;;;5006400;28;20307;-72
2023/03/23 05:44:47;;;;;;;2.43;1.43;;;11.50;99.90;;;;;;5006138;28;20296;-72
2023/03/23 05:47:14;;;;;;;1.90;1.60;;;11.50;99.90;;;;;;5006784;28;20220;-72
2023/03/23 05:49:41;;;;;;;1.70;1.60;;;11.40;99.90;;;;;;5006187;28;20296;-72
2023/03/23 05:52:08;;;;;;;2.03;1.50;;;11.30;99.90;;;;;;5006073;28;20214;-72
2023/03/23 05:54:37;;;;;;;2.20;1.77;;;11.20;99.90;;;;;;5006000;28;20229;-72
2023/03/23 05:57:05;;;;;;;2.40;1.87;;;11.20;99.90;;;;;;5006006;28;20219;-72
2023/03/23 05:59:33;;;;;;;2.33;1.80;;;11.10;99.90;;;;;;5005869;28;20259;-71
2023/03/23 06:02:00;;;;;;;5.47;1.63;;;11.00;99.90;;;;;;5005110;28;20437;-72
2023/03/23 06:04:27;;;;;;;2.00;1.80;;;11.00;99.90;;;;;;5005803;28;20236;-72
2023/03/23 06:06:54;;;;;;;1.87;1.60;;;10.90;99.90;;;;;;5005509;28;20296;-72
2023/03/23 06:09:23;;;;;;;2.37;1.70;;;10.90;99.90;;;;;;5004491;28;20740;-72
2023/03/23 06:11:51;;;;;;;1.87;1.77;;;10.90;99.90;;;;;;5005625;28;20210;-72
2023/03/23 06:14:19;;;;;;;3.90;1.80;;;10.80;99.90;;;;;;5005696;28;20213;-72
2023/03/23 06:16:45;;;;;;;3.10;2.00;;;10.80;99.90;;;;;;5005115;28;20205;-72
2023/03/23 06:19:12;;;;;;;3.23;2.00;;;10.70;99.90;;;;;;5005318;28;20647;-71
2023/03/23 06:21:39;;;;;;;3.13;1.90;;;10.70;99.90;;;;;;5005428;28;20233;-72
2023/03/23 06:24:07;;;;;;;2.03;1.90;;;10.70;99.90;;;;;;5005382;28;20241;-72
2023/03/23 06:26:36;;;;;;;2.00;1.90;;;10.60;99.90;;;;;;5005674;28;20259;-72
2023/03/23 06:29:10;;;;;;;2.13;1.77;;;10.50;99.90;;;;;;5005565;28;20224;-71
2023/03/23 06:31:38;;;;;;;2.40;2.03;;;10.60;99.90;;;;;;5005453;28;20201;-71
2023/03/23 06:34:05;;;;;;;2.13;1.93;;;10.60;99.90;;;;;;5005487;28;20213;-72
2023/03/23 06:36:32;;;;;;;3.37;2.03;;;10.60;99.90;;;;;;5005375;28;20220;-72
2023/03/23 06:38:59;;;;;;;3.03;1.80;;;10.60;99.90;;;;;;5005282;28;20308;-72
2023/03/23 06:41:26;;;;;;;2.27;2.00;;;10.60;99.90;;;;;;5000839;28;20233;-72
2023/03/23 06:43:53;;;;;;;3.37;1.93;;;10.60;99.90;;;;;;4985854;28;20253;-72
2023/03/23 06:46:21;;;;;;;3.80;2.00;;;10.60;99.90;;;;;;5001062;28;20228;-72
2023/03/23 06:48:49;;;;;;;1.63;1.53;;;10.70;99.90;;;;;;5004666;28;20792;-72
2023/03/23 06:51:16;;;;;;;2.60;1.90;;;10.70;99.90;;;;;;5005009;28;20672;-72
2023/03/23 06:53:43;;;;;;;1.83;1.73;;;10.70;99.90;;;;;;5005100;28;20308;-72
2023/03/23 06:56:11;;;;;;;2.63;1.70;;;10.70;99.90;;;;;;5004819;28;20747;-72
2023/03/23 06:58:38;;;;;;;2.60;2.00;;;10.70;99.90;;;;;;5004841;28;20214;-72
2023/03/23 07:01:06;;;;;;;2.50;1.93;;;10.80;99.90;;;;;;5005162;28;20220;-72
2023/03/23 07:03:35;;;;;;;3.33;2.03;;;10.80;99.90;;;;;;5005111;28;20319;-72
2023/03/23 07:06:03;;;;;;;1.87;1.50;;;10.80;99.90;;;;;;5004996;28;20626;-72
2023/03/23 07:08:30;;;;;;;2.03;1.93;;;10.80;99.90;;;;;;5005233;28;20209;-72
2023/03/23 07:10:57;;;;;;;2.80;2.13;;;10.90;99.90;;;;;;5004725;28;20520;-72
2023/03/23 07:13:24;;;;;;;2.87;1.90;;;10.90;99.90;;;;;;5005180;28;20237;-72
2023/03/23 07:15:51;;;;;;;2.30;1.60;;;11.00;99.90;;;;;;5004837;28;20214;-73
2023/03/23 07:18:19;;;;;;;2.13;1.93;;;10.90;99.90;;;;;;5005258;28;20205;-72
2023/03/23 07:20:49;;;;;;;5.00;1.80;;;10.90;99.90;;;;;;5004784;28;20297;-72
2023/03/23 07:23:17;;;;;;;2.70;1.60;;;10.90;99.90;;;;;;5008497;28;20779;-73
2023/03/23 07:25:45;;;;;;;1.83;1.73;;;10.90;99.90;;;;;;5008830;28;20292;-73
2023/03/23 07:28:13;;;;;;;2.23;2.03;;;10.90;99.90;;;;;;5008836;28;20297;-73
2023/03/23 07:30:40;;;;;;;2.00;1.80;;;10.90;99.90;;;;;;5008344;28;20206;-73
2023/03/23 07:33:07;;;;;;;2.77;1.80;;;10.90;99.90;;;;;;5009080;28;20320;-73
2023/03/23 07:35:35;;;;;;;1.93;1.73;;;11.00;99.90;;;;;;5008106;28;20206;-73
2023/03/23 07:38:04;;;;;;;2.63;1.80;;;11.10;99.90;;;;;;5008326;28;20698;-73
2023/03/23 07:40:33;;;;;;;2.03;1.93;;;11.10;99.90;;;;;;5008229;28;20220;-73
2023/03/23 07:43:01;;;;;;;2.10;1.90;;;11.20;99.90;;;;;;5008057;28;20237;-73
2023/03/23 07:45:29;;;;;;;1.83;1.47;;;11.20;99.90;;;;;;5008396;28;20300;-73
2023/03/23 07:47:56;;;;;;;3.13;1.50;;;11.30;99.90;;;;;;5008113;28;20213;-73
2023/03/23 07:50:24;;;;;;;1.97;1.77;;;11.30;99.90;;;;;;5008402;28;20232;-72
2023/03/23 07:52:52;;;;;;;2.70;1.70;;;11.20;99.90;;;;;;5022252;28;20336;-72
2023/03/23 07:55:24;;;;;;;1.93;1.70;;;11.10;99.90;;;;;;5008259;28;20209;-72
2023/03/23 07:57:52;;;;;;;2.60;1.60;;;11.20;99.90;;;;;;5008095;28;20289;-72
2023/03/23 08:00:20;;;;;;;1.50;1.40;;;11.20;99.90;;;;;;5008286;28;20216;-72
2023/03/23 08:02:48;;;;;;;3.83;2.10;;;11.20;99.90;;;;;;5007917;28;20209;-72
2023/03/23 08:05:15;;;;;;;2.20;1.80;;;11.30;99.90;;;;;;5007744;28;20367;-72
2023/03/23 08:07:42;;;;;;;2.37;1.90;;;11.30;99.90;;;;;;5007867;28;20313;-72
2023/03/23 08:10:11;;;;;;;1.97;1.87;;;11.30;99.90;;;;;;5007553;28;20328;-72
2023/03/23 08:12:41;;;;;;;2.00;1.90;;;11.30;99.90;;;;;;5007464;28;20220;-72
2023/03/23 08:15:09;;;;;;;2.20;1.70;;;11.40;99.90;;;;;;5007751;28;20241;-73
2023/03/23 08:17:37;;;;;;;2.50;1.80;;;11.40;99.90;;;;;;5007621;28;20324;-72
2023/03/23 08:20:10;;;;;;;3.03;1.80;;;11.40;99.90;;;;;;5007863;28;20210;-72
2023/03/23 08:22:38;;;;;;;2.37;1.70;;;11.40;99.90;;;;;;5007670;28;20293;-73
2023/03/23 08:25:06;;;;;;;2.00;1.87;;;11.40;99.90;;;;;;5007487;28;20672;-72
2023/03/23 08:27:33;;;;;;;1.93;1.83;;;11.40;99.90;;;;;;5007647;28;20218;-72
2023/03/23 08:30:02;;;;;;;2.13;1.93;;;11.40;99.90;;;;;;5007706;28;20215;-72
2023/03/23 08:32:28;;;;;;;2.00;1.67;;;11.50;99.90;;;;;;5006710;28;20214;-72
2023/03/23 08:34:55;;;;;;;2.90;1.83;;;11.40;99.90;;;;;;5007064;28;20213;-72
2023/03/23 08:37:22;;;;;;;1.63;1.53;;;11.40;99.90;;;;;;5007275;28;20213;-72
2023/03/23 08:39:52;;;;;;;4.77;2.17;;;11.40;99.90;;;;;;5007769;28;20300;-74
2023/03/23 08:42:19;;;;;;;4.50;1.80;;;11.50;99.90;;;;;;5007292;28;20215;-72
2023/03/23 08:44:46;;;;;;;2.50;2.00;;;11.50;99.90;;;;;;5007327;28;20331;-72
2023/03/23 08:47:15;;;;;;;2.00;1.80;;;11.50;99.90;;;;;;5007459;28;20209;-72
2023/03/23 08:49:42;;;;;;;2.40;1.77;;;11.50;99.90;;;;;;5006920;28;21086;-72
2023/03/23 08:52:10;;;;;;;2.63;1.87;;;11.50;99.90;;;;;;5007156;28;20300;-72
2023/03/23 08:54:37;;;;;;;2.00;1.87;;;11.60;99.90;;;;;;5007327;28;20206;-72
2023/03/23 08:57:04;;;;;;;1.80;1.70;;;11.60;99.90;;;;;;5007187;28;20209;-72
2023/03/23 08:59:31;;;;;;;1.63;1.53;;;11.60;99.90;;;;;;5007494;28;20304;-73
2023/03/23 09:01:58;;;;;;;2.20;1.60;;;11.70;99.90;;;;;;5007142;28;20297;-72
2023/03/23 09:04:28;;;;;;;1.70;1.60;;;11.70;99.90;;;;;;5007087;28;20268;-72
2023/03/23 09:06:57;;;;;;;1.77;1.60;;;11.80;99.90;;;;;;5006863;28;20271;-73
2023/03/23 09:09:24;;;;;;;1.60;1.50;;;11.80;99.90;;;;;;5006576;28;20245;-72
2023/03/23 09:11:51;;;;;;;2.03;1.60;;;11.80;99.90;;;;;;5006955;28;20296;-73
2023/03/23 09:14:18;;;;;;;4.20;1.70;;;11.80;99.90;;;;;;5006946;28;20316;-73
2023/03/23 09:16:46;;;;;;;1.83;1.73;;;11.80;99.90;;;;;;5006973;28;20308;-73
2023/03/23 09:19:13;;;;;;;1.60;1.50;;;11.80;99.90;;;;;;5006959;28;20591;-73
2023/03/23 09:21:41;;;;;;;1.67;1.57;;;11.90;99.90;;;;;;5006486;28;20213;-73
2023/03/23 09:24:09;;;;;;;12.17;9.03;;;12.00;99.90;;;;;;5006815;28;20241;-73
2023/03/23 09:26:35;;;;;;;3.10;2.77;;;12.00;99.90;;;;;;5006643;28;20215;-73
2023/03/23 09:29:03;;;;;;;1.70;1.30;;;12.00;99.90;;;;;;5006612;28;20252;-73
2023/03/23 09:31:31;;;;;;;1.87;1.63;;;12.10;99.90;;;;;;5006066;28;20268;-72
2023/03/23 09:33:59;;;;;;;3.23;1.67;;;12.20;99.90;;;;;;5006224;28;20260;-73
2023/03/23 09:36:29;;;;;;;1.80;1.70;;;12.30;99.90;;;;;;5006385;28;20590;-73
2023/03/23 09:38:58;;;;;;;1.30;1.30;;;12.40;99.90;;;;;;5006080;28;20209;-72
2023/03/23 09:41:44;;;;;;;1.60;1.50;;;12.50;99.90;;;;;;5010267;28;20258;-73
2023/03/23 09:44:21;;;;;;;1.63;1.43;;;12.60;99.90;;;;;;5025526;28;20232;-73
2023/03/23 09:46:59;;;;;;;1.53;1.43;;;12.70;99.90;;;;;;5006469;28;20205;-72
2023/03/23 09:49:32;;;;;;;2.40;1.70;;;12.70;99.90;;;;;;5005927;28;20229;-73
2023/03/23 09:52:06;;;;;;;1.77;1.50;;;12.80;99.90;;;;;;5006089;28;20704;-73
2023/03/23 09:54:39;;;;;;;1.50;1.40;;;12.80;99.90;;;;;;5005930;28;21018;-73
2023/03/23 09:57:14;;;;;;;2.00;1.30;;;12.90;99.90;;;;;;5005877;28;20296;-73
2023/03/23 09:59:47;;;;;;;1.50;1.40;;;12.90;99.90;;;;;;5005782;28;20673;-73
2023/03/23 10:02:18;;;;;;;1.30;1.20;;;12.90;99.90;;;;;;5006055;28;20202;-72
2023/03/23 10:04:47;;;;;;;1.83;1.30;;;12.90;99.90;;;;;;5005044;28;20237;-73
2023/03/23 10:07:16;;;;;;;1.30;1.30;;;12.90;99.90;;;;;;4986322;28;20309;-73
2023/03/23 10:09:46;;;;;;;1.30;1.20;;;12.90;99.90;;;;;;4985974;28;20242;-73
2023/03/23 10:12:26;;;;;;;2.30;1.43;;;12.90;99.90;;;;;;4996848;28;20759;-73
2023/03/23 10:15:11;;;;;;;1.30;1.30;;;12.90;99.90;;;;;;5005505;28;20993;-73
2023/03/23 10:17:45;;;;;;;1.20;1.20;;;13.00;99.90;;;;;;5005746;28;20220;-73
2023/03/23 10:20:33;;;;;;;1.73;1.23;;;13.00;99.90;;;;;;5005355;28;20212;-73
2023/03/23 10:23:10;;;;;;;1.33;1.23;;;13.00;99.90;;;;;;5005578;28;20200;-73
2023/03/23 10:25:42;;;;;;;1.40;1.30;;;13.10;99.90;;;;;;5005435;28;20707;-73
2023/03/23 10:28:13;;;;;;;1.10;1.10;;;13.10;99.90;;;;;;5005875;28;21285;-73
2023/03/23 10:30:43;;;;;;;1.50;1.40;;;13.20;99.90;;;;;;5005403;28;20198;-74
2023/03/23 10:33:19;;;;;;;1.50;1.17;;;13.20;99.90;;;;;;5005523;28;20715;-73
2023/03/23 10:35:53;;;;;;;1.20;1.20;;;13.30;99.90;;;;;;5004977;28;20667;-73
2023/03/23 10:38:24;;;;;;;1.03;1.03;;;13.40;99.90;;;;;;5005397;28;20648;-73
2023/03/23 10:40:56;;;;;;;1.30;1.20;;;13.40;99.90;;;;;;5005259;28;20201;-73
2023/03/23 10:43:24;;;;;;;1.70;1.13;;;13.40;99.90;;;;;;5004376;28;20248;-73
2023/03/23 10:45:57;;;;;;;1.40;1.10;;;13.50;99.90;;;;;;5005037;28;20311;-74
2023/03/23 10:48:32;;;;;;;1.40;1.30;;;13.50;99.90;;;;;;5005437;28;20220;-73
2023/03/23 10:51:01;;;;;;;2.37;1.30;;;13.50;99.90;;;;;;5005212;28;20205;-73
2023/03/23 10:53:33;;;;;;;2.53;1.37;;;13.50;99.90;;;;;;5005655;28;20316;-74
2023/03/23 10:56:01;;;;;;;1.30;1.27;;;13.50;99.90;;;;;;5005647;28;20208;-74
2023/03/23 10:58:31;;;;;;;0.97;0.97;;;13.50;99.90;;;;;;5009755;28;20301;-73
2023/03/23 11:00:59;;;;;;;1.10;1.10;;;13.60;99.90;;;;;;5009884;28;20289;-73
2023/03/23 11:03:35;;;;;;;1.00;1.00;;;13.60;99.90;;;;;;5009609;28;20248;-73
2023/03/23 11:06:04;;;;;;;2.30;1.07;;;13.50;99.90;;;;;;5009641;28;20212;-74
2023/03/23 11:08:35;;;;;;;1.77;1.30;;;13.60;99.90;;;;;;5009474;28;20410;-73
2023/03/23 11:11:12;;;;;;;0.90;0.90;;;13.60;99.90;;;;;;5007272;28;20331;-73
2023/03/23 11:13:44;;;;;;;1.10;1.10;;;13.60;99.90;;;;;;4989425;28;20308;-73
2023/03/23 11:16:22;;;;;;;1.67;1.27;;;13.60;99.90;;;;;;4998499;28;20209;-73
2023/03/23 11:18:49;;;;;;;2.33;1.60;;;13.60;99.90;;;;;;5008511;28;20198;-73
2023/03/23 11:21:17;;;;;;;2.13;1.37;;;13.60;99.90;;;;;;5008606;28;20818;-74
2023/03/23 11:23:50;;;;;;;1.37;1.27;;;13.70;99.90;;;;;;5008327;28;20699;-73
2023/03/23 11:26:22;;;;;;;1.23;1.00;;;13.70;99.90;;;;;;5008896;28;20285;-73
2023/03/23 11:28:53;;;;;;;1.30;1.17;;;13.80;99.90;;;;;;5008753;28;20233;-73
2023/03/23 11:31:24;;;;;;;1.30;1.20;;;13.80;99.90;;;;;;5008702;28;20280;-73
2023/03/23 11:33:55;;;;;;;1.20;1.00;;;13.90;99.90;;;;;;5008422;28;20194;-73
2023/03/23 11:36:29;;;;;;;1.20;1.10;;;13.90;99.90;;;;;;5008839;28;20194;-73
2023/03/23 11:38:57;;;;;;;1.77;1.20;;;14.00;99.90;;;;;;5008210;28;20627;-73
2023/03/23 11:41:36;;;;;;;1.40;1.20;;;14.00;99.90;;;;;;5008040;28;20218;-73
2023/03/23 11:44:10;;;;;;;1.30;1.20;;;14.00;99.90;;;;;;5008475;28;20308;-73
2023/03/23 11:46:45;;;;;;;1.70;1.43;;;14.00;99.90;;;;;;5008501;28;20212;-73
2023/03/23 11:49:21;;;;;;;1.33;1.23;;;14.10;99.90;;;;;;5008753;28;20320;-73
2023/03/23 11:51:50;;;;;;;1.40;1.30;;;14.10;99.90;;;;;;5007925;28;20292;-73
2023/03/23 11:54:26;;;;;;;1.30;1.20;;;14.10;99.90;;;;;;5008319;28;20217;-73
2023/03/23 11:56:54;;;;;;;1.30;1.10;;;14.20;99.90;;;;;;5007796;28;20288;-73
2023/03/23 11:59:29;;;;;;;2.03;1.20;;;14.20;99.90;;;;;;5007633;28;20305;-73
2023/03/23 12:02:00;;;;;;;2.63;1.47;;;14.20;99.90;;;;;;5007452;28;20209;-73
2023/03/23 12:04:54;;;;;;;3.07;1.97;;;14.30;99.90;;;;;;5008054;28;20606;-73
2023/03/23 12:07:37;;;;;;;2.60;2.37;;;14.30;99.90;;;;;;5007845;28;20249;-73
2023/03/23 12:10:16;;;;;;;1.43;1.33;;;14.30;99.90;;;;;;5008206;28;20249;-73
2023/03/23 12:12:52;;;;;;;1.23;1.23;;;14.30;99.90;;;;;;5007741;28;20214;-73
2023/03/23 12:15:25;;;;;;;1.00;1.00;;;14.30;99.90;;;;;;5008220;28;20189;-73
2023/03/23 12:17:58;;;;;;;1.47;1.20;;;14.30;99.90;;;;;;5008069;28;20241;-73
2023/03/23 12:20:33;;;;;;;1.40;1.30;;;14.30;99.90;;;;;;5007969;28;20313;-73
2023/03/23 12:23:09;;;;;;;1.90;1.30;;;14.30;99.90;;;;;;5007704;28;20220;-73
2023/03/23 12:26:16;;;;;;;2.30;1.40;;;14.30;99.90;;;;;;5007692;28;20324;-73
2023/03/23 12:29:09;;;;;;;1.43;1.33;;;14.30;99.90;;;;;;4992418;28;20212;-74
2023/03/23 12:31:45;;;;;;;1.30;1.20;;;14.30;99.90;;;;;;5007460;28;20301;-73
2023/03/23 12:34:22;;;;;;;2.90;1.60;;;14.40;99.90;;;;;;5004064;28;20740;-74
2023/03/23 12:37:02;;;;;;;1.23;1.13;;;14.40;99.90;;;;;;5007583;28;20336;-74
2023/03/23 12:40:07;;;;;;;1.13;1.03;;;14.40;99.90;;;;;;5007561;28;20232;-73
2023/03/23 12:42:43;;;;;;;1.23;1.13;;;14.40;99.90;;;;;;4997897;28;20218;-74
2023/03/23 12:45:22;;;;;;;1.30;1.20;;;14.50;99.90;;;;;;4993768;28;20324;-74
2023/03/23 12:47:53;;;;;;;3.43;1.37;;;14.50;99.90;;;;;;5007653;28;20204;-71
2023/03/23 12:50:26;;;;;;;1.20;1.10;;;14.50;99.90;;;;;;5007731;28;20288;-73
2023/03/23 12:52:58;;;;;;;1.80;1.13;;;14.60;99.90;;;;;;5007505;28;20229;-73
2023/03/23 12:55:32;;;;;;;1.73;1.17;;;14.70;99.90;;;;;;5008239;28;20206;-74
2023/03/23 12:58:05;;;;;;;1.30;1.20;;;15.00;99.90;;;;;;5007435;28;20196;-73
2023/03/23 13:00:53;;;;;;;1.10;1.10;;;15.20;99.90;;;;;;5007522;28;20252;-73
2023/03/23 13:03:27;;;;;;;1.53;1.43;;;15.50;99.90;;;;;;5007251;28;20194;-73
2023/03/23 13:06:00;;;;;;;1.30;1.20;;;15.70;99.90;;;;;;5007210;28;20730;-73